Time;durP1;ratioP1;P1;durP2;ratioP2;P2;SDS_P1;SDS_P2;PMS_P1;PMS_P2;Temp;Humidity;BMP_temperature;BMP_pressure;BME280_temperature;BME280_humidity;BME280_pressure;Samples;Min_cycle;Max_cycle;Signal;HPM_P1;HPM_P2
2022/12/27 00:03:53;;;;;;;0.20;0.20;;;;;;;3.12;100.00;102050.47;10416492;28;20056;-64
2022/12/27 00:08:56;;;;;;;0.40;0.40;;;;;;;3.05;100.00;102049.66;10417508;28;20049;-64
2022/12/27 00:14:00;;;;;;;0.63;0.63;;;;;;;2.94;100.00;102048.84;10415879;28;20053;-64
2022/12/27 00:19:03;;;;;;;0.20;0.20;;;;;;;2.95;100.00;102050.59;10414936;28;20049;-64
2022/12/27 00:24:05;;;;;;;4.38;1.52;;;;;;;2.97;100.00;102056.59;10398418;28;20049;-64
2022/12/27 00:29:09;;;;;;;3.63;3.03;;;;;;;3.12;100.00;102053.06;10415230;28;20045;-64
2022/12/27 00:34:11;;;;;;;0.20;0.20;;;;;;;3.09;100.00;102058.25;10414061;28;20447;-64
2022/12/27 00:39:14;;;;;;;0.20;0.20;;;;;;;2.94;100.00;102075.59;10398717;28;20057;-64
2022/12/27 00:44:16;;;;;;;0.55;0.55;;;;;;;2.97;100.00;102085.06;10414414;28;20045;-64
2022/12/27 00:49:19;;;;;;;0.20;0.20;;;;;;;2.96;100.00;102088.53;10415531;28;20107;-65
2022/12/27 00:54:21;;;;;;;0.75;0.75;;;;;;;2.98;100.00;102094.56;10414389;28;20515;-64
2022/12/27 00:59:23;;;;;;;0.10;0.10;;;;;;;2.74;100.00;102083.47;10397555;28;20046;-64
2022/12/27 01:04:26;;;;;;;4.40;1.63;;;;;;;2.79;100.00;102083.41;10412860;28;20046;-64
2022/12/27 01:09:28;;;;;;;0.20;0.20;;;;;;;2.77;100.00;102104.13;10415665;28;20045;-64
2022/12/27 01:14:30;;;;;;;0.90;0.90;;;;;;;2.85;100.00;102106.69;10414019;28;20123;-64
2022/12/27 01:19:35;;;;;;;0.45;0.43;;;;;;;2.86;100.00;102110.13;10415292;28;20041;-64
2022/12/27 01:24:37;;;;;;;0.82;0.82;;;;;;;2.79;100.00;102114.44;10413238;28;20378;-64
2022/12/27 01:29:39;;;;;;;9.32;0.70;;;;;;;2.77;100.00;102109.31;10413918;28;20045;-64
2022/12/27 01:34:42;;;;;;;0.20;0.20;;;;;;;2.91;100.00;102124.78;10415022;28;20049;-64
2022/12/27 01:39:44;;;;;;;0.80;0.80;;;;;;;2.62;100.00;102135.19;10413599;28;20400;-64
2022/12/27 01:44:55;;;;;;;0.68;0.68;;;;;;;2.74;100.00;102137.78;10395796;28;20128;-64
2022/12/27 01:50:20;;;;;;;0.10;0.10;;;;;;;2.84;100.00;102141.19;10412964;28;20484;-65
2022/12/27 01:55:26;;;;;;;0.13;0.13;;;;;;;2.76;100.00;102148.97;10379693;28;20104;-64
2022/12/27 02:00:28;;;;;;;0.20;0.20;;;;;;;2.94;100.00;102145.47;10381179;28;20103;-65
2022/12/27 02:05:31;;;;;;;0.30;0.30;;;;;;;2.91;100.00;102154.97;10416133;28;20079;-64
2022/12/27 02:10:34;;;;;;;0.10;0.10;;;;;;;3.01;100.00;102160.94;10421031;28;20503;-64
2022/12/27 02:15:36;;;;;;;0.10;0.10;;;;;;;3.08;100.00;102181.63;10420223;28;20515;-64
2022/12/27 02:21:12;;;;;;;0.20;0.20;;;;;;;3.00;100.00;102177.34;10421835;28;20053;-64
2022/12/27 02:26:14;;;;;;;0.10;0.10;;;;;;;3.21;100.00;102185.03;10388784;28;20054;-64
2022/12/27 02:31:30;;;;;;;0.55;0.55;;;;;;;3.09;100.00;102203.19;10420765;28;20440;-64
2022/12/27 02:36:34;;;;;;;0.35;0.35;;;;;;;3.01;100.00;102199.75;10419904;28;20500;-64
2022/12/27 02:53:02;;;;;;;0.17;0.17;;;;;;;2.97;100.00;102193.72;10419754;28;20087;-64
2022/12/27 02:58:20;;;;;;;0.10;0.10;;;;;;;3.13;100.00;102181.63;10398489;28;20053;-64
2022/12/27 03:03:40;;;;;;;0.20;0.20;;;;;;;3.10;100.00;102185.06;10418255;28;20447;-64
2022/12/27 03:08:54;;;;;;;18.35;3.65;;;;;;;3.14;100.00;102196.25;10418521;28;20057;-64
2022/12/27 03:46:42;;;;;;;0.68;0.65;;;;;;;3.00;100.00;102222.19;10402354;28;20064;-65
2022/12/27 03:51:50;;;;;;;6.13;1.05;;;;;;;2.85;100.00;102220.50;10414708;28;20472;-64
2022/12/27 03:57:16;;;;;;;0.30;0.30;;;;;;;3.06;100.00;102218.72;10398256;28;20049;-65
2022/12/27 04:02:19;;;;;;;0.65;0.65;;;;;;;2.93;100.00;102215.31;10391220;28;20064;-65
2022/12/27 04:07:22;;;;;;;0.10;0.10;;;;;;;2.95;100.00;102219.59;10398763;28;20053;-65
2022/12/27 04:39:09;;;;;;;0.20;0.20;;;;;;;2.88;100.00;102232.59;10415300;28;20045;-65
2022/12/27 04:54:57;;;;;;;0.10;0.10;;;;;;;2.92;100.00;102248.06;10413143;28;20443;-65
2022/12/27 05:05:20;;;;;;;0.10;0.10;;;;;;;3.09;100.00;102250.63;10414221;28;20412;-64
2022/12/27 05:15:43;;;;;;;0.10;0.10;;;;;;;3.02;100.00;102261.84;10414843;28;20056;-65
2022/12/27 05:20:46;;;;;;;0.75;0.75;;;;;;;2.98;100.00;102273.09;10413918;28;20045;-64
2022/12/27 05:25:48;;;;;;;0.10;0.10;;;;;;;2.94;100.00;102261.00;10413771;28;20054;-64
2022/12/27 05:30:50;;;;;;;0.15;0.15;;;;;;;3.00;100.00;102275.69;10416277;28;20049;-64
2022/12/27 05:35:53;;;;;;;0.28;0.28;;;;;;;3.04;100.00;102275.63;10405207;28;20060;-65
2022/12/27 05:41:05;;;;;;;0.20;0.20;;;;;;;3.10;100.00;102282.56;10404724;28;20041;-65
2022/12/27 05:46:10;;;;;;;0.10;0.10;;;;;;;3.05;100.00;102287.72;10403684;28;20071;-65
2022/12/27 05:51:14;;;;;;;0.20;0.20;;;;;;;3.01;100.00;102283.44;10419404;28;20060;-64
2022/12/27 05:56:19;;;;;;;0.10;0.10;;;;;;;3.00;100.00;102286.03;10403538;28;20480;-64
2022/12/27 06:01:21;;;;;;;0.15;0.15;;;;;;;2.95;100.00;102279.13;10421290;28;20049;-64
2022/12/27 06:06:24;;;;;;;0.20;0.20;;;;;;;3.06;100.00;102297.22;10420565;28;20390;-65
2022/12/27 06:11:26;;;;;;;0.68;0.60;;;;;;;2.99;100.00;102298.09;10421596;28;20049;-64
2022/12/27 06:16:28;;;;;;;0.43;0.43;;;;;;;2.96;100.00;102304.13;10419216;28;20053;-64
2022/12/27 06:21:31;;;;;;;0.38;0.38;;;;;;;2.92;100.00;102306.72;10421361;28;20050;-64
2022/12/27 06:26:33;;;;;;;0.10;0.10;;;;;;;2.98;100.00;102317.06;10419149;28;20484;-64
2022/12/27 06:31:35;;;;;;;0.10;0.10;;;;;;;2.92;100.00;102309.31;10419442;28;20045;-65
2022/12/27 06:36:38;;;;;;;0.45;0.45;;;;;;;2.96;100.00;102317.06;10379893;28;20086;-65
2022/12/27 06:41:40;;;;;;;47.78;4.15;;;;;;;2.85;100.00;102313.63;10378312;28;20478;-64
2022/12/27 06:46:42;;;;;;;0.20;0.20;;;;;;;3.00;100.00;102311.91;10414632;28;20053;-64
2022/12/27 06:51:47;;;;;;;0.20;0.20;;;;;;;2.91;100.00;102310.19;10418109;28;20045;-64
2022/12/27 06:56:55;;;;;;;0.17;0.17;;;;;;;2.94;100.00;102324.00;10420028;28;20077;-64
2022/12/27 07:01:58;;;;;;;19.20;1.23;;;;;;;2.83;100.00;102319.69;10419793;28;20046;-64
2022/12/27 07:07:00;;;;;;;0.20;0.20;;;;;;;2.84;100.00;102337.78;10418708;28;20129;-64
2022/12/27 07:12:03;;;;;;;0.17;0.17;;;;;;;2.86;100.00;102340.34;10418735;28;20050;-64
2022/12/27 07:17:05;;;;;;;0.13;0.13;;;;;;;3.03;100.00;102338.63;10400758;28;20053;-65
2022/12/27 07:22:08;;;;;;;0.20;0.20;;;;;;;2.67;100.00;102345.53;10419533;28;20045;-64
2022/12/27 07:27:10;;;;;;;0.10;0.10;;;;;;;2.78;100.00;102355.88;10417324;28;20056;-64
2022/12/27 07:32:12;;;;;;;81.03;18.52;;;;;;;2.80;100.00;102369.69;10417693;28;20049;-64
2022/12/27 07:37:16;;;;;;;1.05;1.05;;;;;;;2.64;100.00;102365.34;10418364;28;20416;-64
2022/12/27 07:42:18;;;;;;;2.88;1.67;;;;;;;2.75;100.00;102382.59;10407555;28;20053;-64
2022/12/27 07:47:21;;;;;;;0.28;0.28;;;;;;;2.70;100.00;102376.56;10412986;28;20096;-65
2022/12/27 07:52:23;;;;;;;6.95;3.35;;;;;;;2.70;100.00;102380.88;10416264;28;20053;-64
2022/12/27 07:57:26;;;;;;;1999.90;999.90;;;;;;;2.64;100.00;102399.84;10417286;28;20056;-64
2022/12/27 08:07:32;;;;;;;113.57;47.47;;;;;;;2.89;100.00;102421.44;10368500;28;20104;-68
2022/12/27 08:12:35;;;;;;;0.10;0.10;;;;;;;3.02;100.00;102414.53;10373474;28;20112;-68
2022/12/27 08:17:37;;;;;;;1413.65;462.25;;;;;;;2.94;100.00;102442.13;10390657;28;20137;-67
2022/12/27 08:22:39;;;;;;;1999.90;999.90;;;;;;;3.27;100.00;102419.69;10390479;28;20046;-67
2022/12/27 08:27:42;;;;;;;1999.90;999.90;;;;;;;3.08;100.00;102411.94;10369364;28;20061;-67
2022/12/27 08:32:44;;;;;;;1999.90;999.90;;;;;;;3.00;100.00;102421.44;10374927;28;20444;-68
2022/12/27 08:37:46;;;;;;;1999.90;999.90;;;;;;;3.08;100.00;102424.88;10374208;28;20062;-67
2022/12/27 08:42:48;;;;;;;1999.90;999.90;;;;;;;2.95;100.00;102428.34;10373874;28;20058;-67
2022/12/27 08:47:51;;;;;;;0.93;0.93;;;;;;;2.96;100.00;102445.59;10374497;28;20057;-67
2022/12/27 08:52:57;;;;;;;16.38;1.50;;;;;;;3.16;100.00;102449.03;10373680;28;20116;-67
2022/12/27 08:58:04;;;;;;;6.85;6.45;;;;;;;3.14;100.00;102426.59;10368655;28;20430;-67
2022/12/27 09:03:18;;;;;;;3.25;3.08;;;;;;;3.12;100.00;102425.75;10372185;28;20058;-67
2022/12/27 09:08:20;;;;;;;1999.90;999.90;;;;;;;3.24;100.00;102424.88;10379753;28;20054;-67
2022/12/27 09:13:22;;;;;;;1999.90;999.90;;;;;;;3.34;100.00;102418.81;10383023;28;20046;-67
2022/12/27 09:18:25;;;;;;;7.13;5.97;;;;;;;3.39;100.00;102435.22;10381568;28;20045;-67
2022/12/27 09:23:28;;;;;;;8.57;8.27;;;;;;;3.47;100.00;102423.13;10380851;28;20481;-67
2022/12/27 09:28:30;;;;;;;10.23;9.82;;;;;;;3.70;100.00;102430.00;10381944;28;20488;-67
2022/12/27 09:33:33;;;;;;;10.57;10.25;;;;;;;3.64;100.00;102437.78;10381697;28;20398;-67
2022/12/27 09:38:36;;;;;;;11.20;10.70;;;;;;;4.40;100.00;102418.44;10380547;28;20050;-67
2022/12/27 09:43:52;;;;;;;10.27;9.98;;;;;;;4.53;100.00;102421.84;10394382;28;20037;-67
2022/12/27 09:48:55;;;;;;;24.60;23.60;;;;;;;4.16;100.00;102427.22;10364501;28;20053;-67
2022/12/27 09:54:02;;;;;;;26.17;24.92;;;;;;;4.23;100.00;102435.84;10331233;28;20049;-68
2022/12/27 09:59:19;;;;;;;25.42;24.40;;;;;;;4.28;100.00;102442.72;10379398;28;20053;-67
2022/12/27 10:04:22;;;;;;;24.98;23.88;;;;;;;4.05;100.00;102440.25;10378563;28;20104;-67
2022/12/27 10:09:38;;;;;;;22.60;21.45;;;;;;;4.18;100.00;102456.59;10380953;28;20045;-67
2022/12/27 10:15:02;;;;;;;20.60;19.80;;;;;;;4.44;100.00;102453.88;10379613;28;20054;-67
2022/12/27 10:20:17;;;;;;;20.27;6.65;;;;;;;4.39;100.00;102454.78;10375240;28;20049;-65
2022/12/27 10:25:22;;;;;;;1999.90;999.90;;;;;;;4.55;100.00;102451.22;10395797;28;20556;-65
2022/12/27 10:30:25;;;;;;;1999.90;999.90;;;;;;;4.69;100.00;102448.56;10387458;28;20057;-65
2022/12/27 10:35:27;;;;;;;1999.90;999.90;;;;;;;4.90;100.00;102449.28;10360533;28;20108;-65
2022/12/27 10:41:01;;;;;;;1999.90;999.90;;;;;;;5.07;100.00;102425.78;10411070;28;20042;-65
2022/12/27 10:46:19;;;;;;;1999.90;999.90;;;;;;;4.83;100.00;102425.97;10338448;28;20125;-66
2022/12/27 10:51:23;;;;;;;1999.90;999.90;;;;;;;4.95;100.00;102430.19;10343619;28;20120;-65
2022/12/27 10:56:37;;;;;;;1999.90;999.90;;;;;;;5.30;100.00;102423.00;10376130;28;20060;-65
2022/12/27 11:01:40;;;;;;;1999.90;999.90;;;;;;;5.47;100.00;102422.84;10378984;28;20045;-65
2022/12/27 11:06:45;;;;;;;1999.90;999.90;;;;;;;5.34;100.00;102429.88;10361048;28;20054;-65
2022/12/27 11:11:47;;;;;;;1999.90;999.90;;;;;;;5.49;100.00;102427.13;10374810;28;20096;-65
2022/12/27 11:16:50;;;;;;;1999.90;999.90;;;;;;;5.49;100.00;102414.13;10378305;28;20056;-65
2022/12/27 11:21:54;;;;;;;1999.90;999.90;;;;;;;5.53;100.00;102420.16;10376497;28;20121;-65
2022/12/27 11:26:58;;;;;;;1999.90;999.90;;;;;;;5.67;100.00;102410.50;10376214;28;20485;-65
2022/12/27 11:32:05;;;;;;;1999.90;999.90;;;;;;;5.69;100.00;102408.72;10375318;28;20350;-65
2022/12/27 11:37:14;;;;;;;1999.90;999.90;;;;;;;5.92;100.00;102403.25;10374704;28;20390;-66
2022/12/27 11:42:25;;;;;;;1999.90;999.90;;;;;;;6.02;100.00;102403.16;10376265;28;20046;-66
2022/12/27 11:47:34;;;;;;;1999.90;999.90;;;;;;;6.24;100.00;102404.63;10374683;28;20485;-65
2022/12/27 11:53:08;;;;;;;1999.90;999.90;;;;;;;7.47;100.00;102393.13;10391296;28;20046;-66
2022/12/27 11:58:23;;;;;;;1999.90;999.90;;;;;;;7.58;100.00;102380.72;10391946;28;20050;-66
2022/12/27 12:03:25;;;;;;;1999.90;999.90;;;;;;;6.90;100.00;102376.75;10374699;28;20440;-66
2022/12/27 12:08:52;;;;;;;1999.90;999.90;;;;;;;6.41;100.00;102364.50;10373587;28;20485;-66
2022/12/27 12:14:22;;;;;;;1999.90;999.90;;;;;;;6.56;100.00;102364.28;10376191;28;20054;-65
2022/12/27 12:19:58;;;;;;;1999.90;999.90;;;;;;;7.29;100.00;102356.06;10391518;28;20050;-66
2022/12/27 12:25:22;;;;;;;1999.90;999.90;;;;;;;6.81;100.00;102343.06;10374853;28;20058;-66
2022/12/27 12:30:43;;;;;;;1999.90;999.90;;;;;;;6.67;100.00;102340.66;10373408;28;20046;-65
2022/12/27 12:35:59;;;;;;;1999.90;999.90;;;;;;;6.72;100.00;102344.06;10375600;28;20129;-66
2022/12/27 12:41:39;;;;;;;1999.90;999.90;;;;;;;6.88;100.00;102344.66;10389990;28;20401;-66
2022/12/27 12:47:14;;;;;;;1999.90;999.90;;;;;;;6.66;100.00;102332.00;10372804;28;20049;-66
2022/12/27 12:52:46;;;;;;;1999.90;999.90;;;;;;;6.35;100.00;102338.56;10355946;28;20104;-66
2022/12/27 12:58:13;;;;;;;1999.90;999.90;;;;;;;6.44;100.00;102339.31;10374470;28;20046;-66
2022/12/27 13:03:32;;;;;;;1999.90;999.90;;;;;;;6.33;100.00;102336.00;10333393;28;20772;-66
2022/12/27 13:08:51;;;;;;;1999.90;999.90;;;;;;;6.79;100.00;102330.06;10360501;28;20054;-66
2022/12/27 13:14:02;;;;;;;1999.90;999.90;;;;;;;6.58;100.00;102315.66;10380000;28;20453;-66
2022/12/27 13:19:29;;;;;;;1999.90;999.90;;;;;;;7.02;100.00;102305.34;10373609;28;20053;-66
2022/12/27 13:25:02;;;;;;;1999.90;999.90;;;;;;;6.89;100.00;102291.69;10374484;28;20050;-66
2022/12/27 13:30:23;;;;;;;1999.90;999.90;;;;;;;7.00;100.00;102279.34;10369844;28;20413;-66
2022/12/27 13:35:59;;;;;;;1999.90;999.90;;;;;;;6.67;100.00;102276.47;10388875;28;20115;-66
2022/12/27 13:41:35;;;;;;;1999.90;999.90;;;;;;;6.57;100.00;102267.09;10373603;28;20042;-66
2022/12/27 13:46:52;;;;;;;10.98;10.57;;;;;;;6.63;100.00;102243.56;10373792;28;20050;-66
2022/12/27 13:52:07;;;;;;;10.05;9.55;;;;;;;6.66;100.00;102240.91;10374108;28;20046;-66
2022/12/27 13:57:29;;;;;;;9.10;8.80;;;;;;;6.87;100.00;102234.44;10395710;28;20049;-66
2022/12/27 14:02:34;;;;;;;;;;;;;;;6.49;100.00;102237.75;10381170;28;20046;-66
2022/12/27 14:08:11;;;;;;;8.05;7.85;;;;;;;6.69;100.00;102227.84;10379564;28;20426;-66
2022/12/27 14:13:35;;;;;;;7.40;7.20;;;;;;;6.74;100.00;102226.88;10339738;28;20046;-66
2022/12/27 14:18:41;;;;;;;9.65;7.63;;;;;;;6.62;100.00;102223.66;10339499;28;20061;-76
2022/12/27 14:23:58;;;;;;;7.97;7.78;;;;;;;6.39;100.00;102223.16;10349195;28;20057;-75
2022/12/27 14:29:31;;;;;;;19.08;18.17;;;;;;;6.42;100.00;102213.59;10379364;28;20112;-69
2022/12/27 14:35:04;;;;;;;4.97;4.55;;;;;;;6.58;100.00;102211.56;10378166;28;20425;-75
2022/12/27 14:40:43;;;;;;;5.40;5.20;;;;;;;6.35;100.00;102192.91;10377878;28;20049;-74
2022/12/27 14:46:01;;;;;;;4.65;4.55;;;;;;;6.20;100.00;102183.59;10394862;28;20108;-74
2022/12/27 14:51:24;;;;;;;4.38;4.28;;;;;;;6.34;100.00;102194.66;10377061;28;20052;-74
2022/12/27 14:57:11;;;;;;;4.10;4.00;;;;;;;6.40;100.00;102184.13;10376211;28;20511;-74
2022/12/27 15:02:28;;;;;;;3.58;3.47;;;;;;;6.39;100.00;102179.81;10376756;28;20425;-74
2022/12/27 15:07:55;;;;;;;4.00;3.90;;;;;;;6.41;100.00;102187.59;10375639;28;20066;-74
2022/12/27 15:13:17;;;;;;;5.53;5.05;;;;;;;6.23;100.00;102184.41;10374068;28;20085;-74
2022/12/27 15:18:34;;;;;;;3.57;3.47;;;;;;;6.42;100.00;102178.88;10390974;28;20050;-74
2022/12/27 15:23:57;;;;;;;3.35;3.25;;;;;;;6.25;100.00;102181.78;10390857;28;20291;-74
2022/12/27 15:29:25;;;;;;;3.38;3.28;;;;;;;6.19;100.00;102171.50;10373242;28;20053;-74
2022/12/27 15:34:46;;;;;;;4.53;4.22;;;;;;;6.09;100.00;102166.44;10390064;28;20077;-74
2022/12/27 15:39:49;;;;;;;0.25;0.25;;;;;;;6.06;100.00;102170.84;10374046;28;20050;-74
2022/12/27 15:45:04;;;;;;;0.25;0.25;;;;;;;6.01;100.00;102180.47;10333880;28;20054;-74
2022/12/27 15:50:32;;;;;;;0.10;0.10;;;;;;;6.17;100.00;102168.94;10354763;28;20041;-74
2022/12/27 15:56:02;;;;;;;0.20;0.20;;;;;;;5.95;100.00;102164.06;10387796;28;20539;-74
2022/12/27 16:01:16;;;;;;;0.10;0.10;;;;;;;6.10;100.00;102168.19;10375077;28;20096;-74
2022/12/27 16:06:33;;;;;;;0.20;0.20;;;;;;;5.88;100.00;102171.97;10331000;28;1261524;-74
2022/12/27 16:11:57;;;;;;;0.20;0.20;;;;;;;5.93;100.00;102152.81;10371339;28;20057;-74
2022/12/27 16:17:24;;;;;;;0.20;0.20;;;;;;;5.92;100.00;102151.09;10375990;28;20057;-74
2022/12/27 16:22:34;;;;;;;0.20;0.20;;;;;;;5.89;100.00;102160.69;10375061;28;20054;-74
2022/12/27 16:27:36;;;;;;;0.13;0.13;;;;;;;5.53;100.00;102153.44;10372236;28;20061;-74
2022/12/27 16:32:47;;;;;;;0.10;0.10;;;;;;;5.66;100.00;102150.66;10378031;28;20096;-74
2022/12/27 16:37:54;;;;;;;0.10;0.10;;;;;;;5.71;100.00;102148.84;10389780;28;20056;-74
2022/12/27 16:42:56;;;;;;;0.10;0.10;;;;;;;5.72;100.00;102151.41;10349956;28;20054;-75
2022/12/27 16:48:38;;;;;;;0.20;0.20;;;;;;;5.77;100.00;102144.41;10365178;28;20042;-74
2022/12/27 16:54:22;;;;;;;0.10;0.10;;;;;;;5.72;100.00;102145.38;10389573;28;20448;-74
2022/12/27 16:59:57;;;;;;;0.10;0.10;;;;;;;5.66;100.00;102146.28;10356315;28;20050;-74
2022/12/27 17:05:00;;;;;;;0.20;0.20;;;;;;;5.80;100.00;102137.44;10389817;28;20088;-75
2022/12/27 17:10:29;;;;;;;0.10;0.10;;;;;;;5.74;100.00;102128.84;10370985;28;20060;-75
2022/12/27 17:15:32;;;;;;;1.20;1.10;;;;;;;5.67;100.00;102127.25;10389920;28;20083;-75
2022/12/27 17:20:36;;;;;;;0.20;0.20;;;;;;;5.53;100.00;102117.06;10389199;28;20050;-74
2022/12/27 17:25:50;;;;;;;0.20;0.20;;;;;;;5.76;100.00;102108.03;10371935;28;20467;-74
2022/12/27 17:31:03;;;;;;;0.65;0.50;;;;;;;5.80;100.00;102103.63;10356471;28;20046;-74
2022/12/27 17:36:40;;;;;;;0.10;0.10;;;;;;;5.67;100.00;102093.47;10356928;28;20133;-74
2022/12/27 17:47:42;;;;;;;0.30;0.30;;;;;;;5.87;100.00;102087.94;10380321;28;20045;-74
2022/12/27 17:58:33;;;;;;;0.10;0.10;;;;;;;5.62;100.00;102073.63;10378693;28;20058;-74
2022/12/27 18:03:40;;;;;;;1.25;0.30;;;;;;;5.68;100.00;102068.31;10378485;28;20049;-74
2022/12/27 18:08:47;;;;;;;1616.68;773.90;;;;;;;5.50;100.00;102061.72;10377459;28;20518;-73
2022/12/27 18:13:52;;;;;;;0.50;0.50;;;;;;;5.30;100.00;102055.06;10378071;28;20049;-74
2022/12/27 18:18:58;;;;;;;0.30;0.30;;;;;;;5.36;100.00;102054.09;10379977;28;20057;-74
2022/12/27 18:24:01;;;;;;;0.10;0.10;;;;;;;5.45;100.00;102053.13;10378224;28;20056;-75
2022/12/27 18:29:04;;;;;;;0.10;0.10;;;;;;;5.39;100.00;102038.47;10393932;28;20046;-74
2022/12/27 18:34:19;;;;;;;0.73;0.73;;;;;;;5.33;100.00;102031.66;10378204;28;20049;-74
2022/12/27 18:39:36;;;;;;;0.13;0.13;;;;;;;5.29;100.00;102024.78;10378877;28;20058;-74
2022/12/27 18:44:45;;;;;;;0.20;0.20;;;;;;;5.31;100.00;102041.22;10376749;28;20050;-74
2022/12/27 18:50:13;;;;;;;0.10;0.10;;;;;;;5.27;100.00;102028.28;10377784;28;20049;-74
2022/12/27 18:55:16;;;;;;;0.57;0.57;;;;;;;5.35;100.00;102016.91;10377042;28;20041;-74
2022/12/27 19:00:23;;;;;;;0.10;0.10;;;;;;;5.27;100.00;102003.16;10380698;28;20096;-74
2022/12/27 19:05:28;;;;;;;4.13;0.82;;;;;;;5.28;100.00;102001.44;10352264;28;20109;-75
2022/12/27 19:10:32;;;;;;;1.38;0.52;;;;;;;5.26;100.00;102003.19;10358722;28;20502;-74
2022/12/27 19:15:42;;;;;;;0.10;0.10;;;;;;;5.16;100.00;101997.28;10375081;28;20562;-74
2022/12/27 19:20:54;;;;;;;0.30;0.30;;;;;;;5.13;100.00;101990.41;10369990;28;20049;-74
2022/12/27 19:25:58;;;;;;;0.10;0.10;;;;;;;5.08;100.00;101983.56;10374134;28;20045;-74
2022/12/27 19:31:16;;;;;;;0.10;0.10;;;;;;;5.01;100.00;101985.41;10372884;28;20049;-75
2022/12/27 19:36:38;;;;;;;0.10;0.10;;;;;;;5.05;100.00;101971.50;10376972;28;20141;-74
2022/12/27 19:41:40;;;;;;;0.10;0.10;;;;;;;5.08;100.00;101970.59;10375843;28;20046;-74
2022/12/27 19:46:43;;;;;;;0.20;0.20;;;;;;;4.92;100.00;101959.59;10358750;28;20497;-75
2022/12/27 19:51:45;;;;;;;0.10;0.10;;;;;;;4.98;100.00;101952.56;10374623;28;20054;-74
2022/12/27 19:56:48;;;;;;;0.10;0.10;;;;;;;4.78;100.00;101941.66;10375448;28;20058;-74
2022/12/27 20:01:50;;;;;;;0.20;0.20;;;;;;;4.70;100.00;101933.13;10376904;28;20046;-74
2022/12/27 20:06:53;;;;;;;0.10;0.10;;;;;;;4.77;100.00;101932.13;10352772;28;20058;-74
2022/12/27 20:11:56;;;;;;;0.15;0.15;;;;;;;4.72;100.00;101921.81;10369453;28;20092;-75
2022/12/27 20:16:58;;;;;;;0.15;0.15;;;;;;;4.47;100.00;101917.00;10375404;28;20050;-75
2022/12/27 20:22:01;;;;;;;2.35;1.30;;;;;;;4.76;100.00;101909.69;10399244;22;20050;-72
2022/12/27 20:27:04;;;;;;;0.45;0.45;;;;;;;4.54;100.00;101906.53;10359559;28;20056;-71
2022/12/27 20:32:06;;;;;;;0.10;0.10;;;;;;;4.60;100.00;101902.09;10388530;28;20038;-71
2022/12/27 20:37:09;;;;;;;0.20;0.20;;;;;;;4.50;100.00;101910.06;10358306;28;20053;-71
2022/12/27 20:42:12;;;;;;;0.30;0.30;;;;;;;4.64;100.00;101892.56;10374893;28;20073;-71
2022/12/27 20:47:14;;;;;;;0.20;0.20;;;;;;;4.57;100.00;101885.72;10377687;28;20046;-71
2022/12/27 20:52:16;;;;;;;0.10;0.10;;;;;;;4.58;100.00;101877.94;10389377;28;20057;-71
2022/12/27 20:57:19;;;;;;;0.10;0.10;;;;;;;4.50;100.00;101874.59;10360071;28;20057;-71
2022/12/27 21:02:21;;;;;;;0.10;0.10;;;;;;;4.64;100.00;101879.59;10389719;28;20056;-71
2022/12/27 21:07:24;;;;;;;0.30;0.30;;;;;;;4.50;100.00;101868.56;10357523;28;20054;-71
2022/12/27 21:12:26;;;;;;;0.10;0.10;;;;;;;4.62;100.00;101853.69;10389289;28;20129;-71
2022/12/27 21:17:28;;;;;;;0.25;0.25;;;;;;;4.61;100.00;101869.25;10374164;28;20050;-71
2022/12/27 21:22:30;;;;;;;0.10;0.10;;;;;;;4.68;100.00;101857.06;10357223;28;20058;-71
2022/12/27 21:27:33;;;;;;;0.17;0.17;;;;;;;4.71;100.00;101857.84;10375516;28;20065;-71
2022/12/27 21:32:35;;;;;;;0.20;0.20;;;;;;;4.82;100.00;101847.28;10373705;28;20061;-71
2022/12/27 21:37:37;;;;;;;0.10;0.10;;;;;;;4.63;100.00;101841.56;10374281;28;20100;-71
2022/12/27 21:42:40;;;;;;;0.57;0.57;;;;;;;4.63;100.00;101832.03;10375831;28;20081;-71
2022/12/27 21:47:42;;;;;;;0.20;0.20;;;;;;;4.79;100.00;101827.47;10374131;28;20239;-71
2022/12/27 21:52:44;;;;;;;0.20;0.20;;;;;;;4.76;100.00;101818.88;10356436;28;20049;-71
2022/12/27 21:57:47;;;;;;;0.10;0.10;;;;;;;4.68;100.00;101805.16;10373468;28;20100;-71
2022/12/27 22:02:49;;;;;;;0.25;0.25;;;;;;;4.84;100.00;101796.22;10371486;28;20449;-71
2022/12/27 22:07:54;;;;;;;0.22;0.22;;;;;;;4.79;100.00;101787.66;10373393;28;20050;-71
2022/12/27 22:12:56;;;;;;;0.10;0.10;;;;;;;4.88;100.00;101776.28;10372010;28;20050;-71
2022/12/27 22:17:58;;;;;;;0.20;0.10;;;;;;;4.82;100.00;101772.03;10379804;28;20057;-71
2022/12/27 22:23:01;;;;;;;0.50;0.50;;;;;;;4.86;100.00;101762.47;10379966;28;20378;-71
2022/12/27 22:28:03;;;;;;;0.10;0.10;;;;;;;4.91;100.00;101753.72;10380449;28;20057;-71
2022/12/27 22:33:06;;;;;;;0.10;0.10;;;;;;;5.03;100.00;101750.88;10378417;28;20050;-71
2022/12/27 22:38:09;;;;;;;0.20;0.20;;;;;;;4.98;100.00;101728.50;10378751;28;20404;-71
2022/12/27 22:43:11;;;;;;;0.10;0.10;;;;;;;5.12;100.00;101720.44;10379245;28;20050;-71
2022/12/27 22:48:13;;;;;;;1.48;1.48;;;;;;;5.09;100.00;101710.97;10378602;28;20054;-71
2022/12/27 22:53:16;;;;;;;0.30;0.20;;;;;;;5.30;100.00;101707.09;10379448;28;20053;-72
2022/12/27 22:58:18;;;;;;;0.10;0.10;;;;;;;5.28;100.00;101701.09;10379278;28;20046;-71
2022/12/27 23:03:20;;;;;;;0.10;0.10;;;;;;;5.31;100.00;101682.84;10378634;28;20049;-71
2022/12/27 23:08:23;;;;;;;0.30;0.30;;;;;;;5.17;100.00;101677.91;10377394;28;20050;-71
2022/12/27 23:13:25;;;;;;;0.20;0.20;;;;;;;5.22;100.00;101660.50;10393907;28;20052;-71
2022/12/27 23:18:28;;;;;;;0.20;0.20;;;;;;;5.32;100.00;101650.78;10377909;28;20108;-72
2022/12/27 23:23:32;;;;;;;0.10;0.10;;;;;;;5.20;100.00;101643.25;10393359;28;20080;-72
2022/12/27 23:28:39;;;;;;;0.10;0.10;;;;;;;5.46;100.00;101647.88;10376974;28;20053;-72
2022/12/27 23:33:42;;;;;;;0.20;0.20;;;;;;;5.41;100.00;101636.72;10377257;28;20482;-71
2022/12/27 23:38:44;;;;;;;0.10;0.10;;;;;;;5.47;100.00;101638.34;10377698;28;20049;-72
2022/12/27 23:43:48;;;;;;;0.10;0.10;;;;;;;5.47;100.00;101638.34;10376772;28;20073;-71
2022/12/27 23:48:58;;;;;;;0.10;0.10;;;;;;;5.45;100.00;101614.16;10378802;28;20481;-72
2022/12/27 23:54:00;;;;;;;0.20;0.20;;;;;;;5.35;100.00;101608.31;10392315;28;20057;-71
2022/12/27 23:59:05;;;;;;;0.10;0.10;;;;;;;5.33;100.00;101594.50;10376326;28;20525;-70
